createdAt,value
2022-09-20T00:00:15.459Z,11.25
2022-09-20T00:03:05.804Z,11.22
2022-09-20T00:05:37.646Z,11.19
2022-09-20T00:08:10.415Z,11.20
2022-09-20T00:10:41.750Z,11.20
2022-09-20T00:13:14.929Z,11.19
2022-09-20T00:15:47.692Z,11.17
2022-09-20T00:18:17.923Z,11.14
2022-09-20T00:20:50.057Z,11.13
2022-09-20T00:23:20.649Z,11.11
2022-09-20T00:26:00.750Z,11.06
2022-09-20T00:28:34.120Z,11.02
2022-09-20T00:31:05.319Z,11.02
2022-09-20T00:33:53.301Z,11.00
2022-09-20T00:36:23.749Z,10.95
2022-09-20T00:39:02.432Z,10.92
2022-09-20T00:41:34.219Z,10.90
2022-09-20T00:44:05.232Z,10.84
2022-09-20T00:46:47.622Z,10.81
2022-09-20T00:49:27.529Z,10.77
2022-09-20T00:52:02.756Z,10.79
2022-09-20T00:54:33.637Z,10.82
2022-09-20T00:57:04.006Z,10.79
2022-09-20T00:59:36.174Z,10.79
2022-09-20T01:02:12.629Z,10.80
2022-09-20T01:04:48.239Z,10.79
2022-09-20T01:07:23.670Z,10.76
2022-09-20T01:09:54.276Z,10.73
2022-09-20T01:12:29.428Z,10.74
2022-09-20T01:15:00.902Z,10.78
2022-09-20T01:17:36.004Z,10.77
2022-09-20T01:20:16.267Z,10.77
2022-09-20T01:23:20.860Z,10.76
2022-09-20T01:26:33.037Z,10.77
2022-09-20T01:29:40.102Z,10.78
2022-09-20T01:32:14.860Z,10.77
2022-09-20T01:34:53.377Z,10.78
2022-09-20T01:37:48.914Z,10.79
2022-09-20T01:40:49.281Z,10.77
2022-09-20T01:43:55.001Z,10.75
2022-09-20T01:46:28.638Z,10.76
2022-09-20T01:49:27.739Z,10.75
2022-09-20T01:52:22.419Z,10.76
2022-09-20T01:55:06.933Z,10.77
2022-09-20T01:57:37.115Z,10.79
2022-09-20T02:00:40.992Z,10.79
2022-09-20T02:03:14.266Z,10.80
2022-09-20T02:06:06.312Z,10.81
2022-09-20T02:08:49.878Z,10.81
2022-09-20T02:11:31.353Z,10.79
2022-09-20T02:14:22.579Z,10.79
2022-09-20T02:17:02.178Z,10.80
2022-09-20T02:19:48.829Z,10.82
2022-09-20T02:22:31.748Z,10.81
2022-09-20T02:25:31.578Z,10.83
2022-09-20T02:28:26.829Z,10.83
2022-09-20T02:31:16.057Z,10.80
2022-09-20T02:34:13.393Z,10.79
2022-09-20T02:37:16.204Z,10.80
2022-09-20T02:40:22.265Z,10.78
2022-09-20T02:43:10.800Z,10.78
2022-09-20T02:45:57.260Z,10.77
2022-09-20T02:48:38.618Z,10.75
2022-09-20T02:51:22.788Z,10.74
2022-09-20T02:54:30.227Z,10.69
2022-09-20T02:57:51.509Z,10.67
2022-09-20T03:00:26.658Z,10.65
2022-09-20T03:03:19.511Z,10.66
2022-09-20T03:06:16.599Z,10.65
2022-09-20T03:09:00.616Z,10.65
2022-09-20T03:11:46.227Z,10.61
2022-09-20T03:14:30.122Z,10.57
2022-09-20T03:17:25.197Z,10.53
2022-09-20T03:20:10.248Z,10.48
2022-09-20T03:22:55.601Z,10.49
2022-09-20T03:25:44.593Z,10.46
2022-09-20T03:28:52.389Z,10.45
2022-09-20T03:31:41.356Z,10.44
2022-09-20T03:34:36.728Z,10.44
2022-09-20T03:37:43.767Z,10.41
2022-09-20T03:40:47.862Z,10.35
2022-09-20T03:43:44.212Z,10.29
2022-09-20T03:46:23.597Z,10.30
2022-09-20T03:49:16.720Z,10.32
2022-09-20T03:52:14.719Z,10.32
2022-09-20T03:55:22.972Z,10.29
2022-09-20T03:58:33.007Z,10.30
2022-09-20T04:01:38.252Z,10.31
2022-09-20T04:04:29.979Z,10.30
2022-09-20T04:07:20.700Z,10.29
2022-09-20T04:09:56.619Z,10.31
2022-09-20T04:13:01.700Z,10.35
2022-09-20T04:16:08.262Z,10.36
2022-09-20T04:19:06.229Z,10.40
2022-09-20T04:21:55.465Z,10.42
2022-09-20T04:24:33.696Z,10.42
2022-09-20T04:27:31.063Z,10.44
2022-09-20T04:30:08.408Z,10.48
2022-09-20T04:32:51.052Z,10.51
2022-09-20T04:35:38.338Z,10.50
2022-09-20T04:38:14.852Z,10.54
2022-09-20T04:41:16.977Z,10.53
2022-09-20T04:43:58.948Z,10.54
2022-09-20T04:47:07.386Z,10.54
2022-09-20T04:49:55.560Z,10.54
2022-09-20T04:53:00.357Z,10.56
2022-09-20T04:55:52.669Z,10.57
2022-09-20T04:58:36.607Z,10.58
2022-09-20T05:05:41.595Z,10.58
2022-09-20T05:08:36.329Z,10.56
2022-09-20T05:11:31.067Z,10.55
2022-09-20T05:14:41.432Z,10.57
2022-09-20T05:17:34.635Z,10.59
2022-09-20T05:20:07.848Z,10.60
2022-09-20T05:23:03.030Z,10.59
2022-09-20T05:26:03.885Z,10.57
2022-09-20T05:28:51.294Z,10.57
2022-09-20T05:31:46.036Z,10.55
2022-09-20T05:34:24.707Z,10.58
2022-09-20T05:37:12.747Z,10.56
2022-09-20T05:40:01.485Z,10.56
2022-09-20T05:42:54.800Z,10.55
2022-09-20T05:45:49.644Z,10.57
2022-09-20T05:48:59.006Z,10.57
2022-09-20T05:51:46.159Z,10.58
2022-09-20T05:54:44.738Z,10.62
2022-09-20T05:57:38.237Z,10.68
2022-09-20T06:00:28.288Z,10.71
2022-09-20T06:03:27.897Z,10.77
2022-09-20T06:06:06.660Z,10.82
2022-09-20T06:08:53.911Z,10.86
2022-09-20T06:11:50.739Z,10.90
2022-09-20T06:14:29.366Z,10.96
2022-09-20T06:17:32.053Z,11.03
2022-09-20T06:20:32.798Z,11.11
2022-09-20T06:23:06.616Z,11.15
2022-09-20T06:25:45.889Z,11.20
2022-09-20T06:28:22.044Z,11.22
2022-09-20T06:30:55.108Z,11.24
2022-09-20T06:33:28.757Z,11.28
2022-09-20T06:36:33.601Z,11.34
2022-09-20T06:40:02.923Z,11.45
2022-09-20T06:42:33.608Z,11.50
2022-09-20T06:45:04.056Z,11.53
2022-09-20T06:47:38.541Z,11.57
2022-09-20T06:50:09.687Z,11.59
2022-09-20T06:52:45.256Z,11.62
2022-09-20T06:55:29.330Z,11.65
2022-09-20T06:58:00.239Z,11.67
2022-09-20T07:00:30.644Z,11.72
2022-09-20T07:03:00.780Z,11.79
2022-09-20T07:05:31.400Z,11.85
2022-09-20T07:08:02.559Z,11.88
2022-09-20T07:10:33.329Z,11.89
2022-09-20T07:13:06.608Z,11.90
2022-09-20T07:15:37.053Z,11.90
2022-09-20T07:18:08.152Z,11.89
2022-09-20T07:20:38.842Z,11.90
2022-09-20T07:23:09.199Z,11.92
2022-09-20T07:25:39.804Z,11.94
2022-09-20T07:28:09.920Z,11.97
2022-09-20T07:30:40.589Z,12.02
2022-09-20T07:33:11.411Z,12.13
2022-09-20T07:35:42.026Z,12.27
2022-09-20T07:41:51.102Z,12.31
2022-09-20T07:49:08.581Z,12.39
2022-09-20T07:53:10.961Z,12.45
2022-09-20T08:01:26.374Z,12.85
2022-09-20T08:03:57.671Z,12.99
2022-09-20T08:06:28.125Z,13.06
2022-09-20T08:14:11.799Z,13.10
2022-09-20T08:16:45.103Z,13.10
2022-09-20T08:19:21.287Z,13.17
2022-09-20T08:21:53.759Z,13.27
2022-09-20T08:24:26.626Z,13.42
2022-09-20T08:26:57.251Z,13.51
2022-09-20T08:29:27.718Z,13.52
2022-09-20T08:31:58.660Z,13.51
2022-09-20T08:34:28.941Z,13.50
2022-09-20T08:36:59.924Z,13.44
2022-09-20T08:42:28.036Z,13.71
2022-09-20T08:45:03.350Z,13.84
2022-09-20T08:47:38.658Z,13.87
2022-09-20T08:50:17.580Z,13.90
2022-09-20T08:52:50.988Z,13.99
2022-09-20T08:55:37.058Z,14.08
2022-09-20T08:58:09.082Z,14.07
2022-09-20T09:00:41.799Z,14.04
2022-09-20T09:03:17.950Z,14.11
2022-09-20T09:10:55.086Z,14.29
2022-09-20T09:13:37.276Z,14.42
2022-09-20T09:16:27.283Z,14.52
2022-09-20T09:19:20.724Z,14.46
2022-09-20T09:21:54.069Z,14.53
2022-09-20T09:24:26.567Z,14.69
2022-09-20T09:27:19.940Z,14.76
2022-09-20T09:30:00.154Z,14.71
2022-09-20T09:32:33.291Z,14.86
2022-09-20T09:35:27.269Z,14.98
2022-09-20T09:38:02.915Z,15.05
2022-09-20T09:40:35.032Z,15.11
2022-09-20T09:43:06.549Z,15.19
2022-09-20T09:45:41.286Z,15.28
2022-09-20T09:48:32.043Z,15.23
2022-09-20T09:51:17.337Z,15.16
2022-09-20T09:53:50.792Z,15.07
2022-09-20T09:56:50.520Z,15.07
2022-09-20T09:59:20.613Z,15.05
2022-09-20T10:02:05.929Z,15.05
2022-09-20T10:09:11.326Z,15.25
2022-09-20T10:12:06.602Z,15.31
2022-09-20T10:14:38.664Z,15.38
2022-09-20T10:17:22.955Z,15.45
2022-09-20T10:20:18.097Z,15.49
2022-09-20T10:28:05.642Z,15.39
2022-09-20T10:31:06.851Z,15.35
2022-09-20T10:34:12.629Z,15.45
2022-09-20T10:36:54.734Z,15.43
2022-09-20T10:39:35.823Z,15.31
2022-09-20T10:42:56.510Z,15.21
2022-09-20T10:45:59.594Z,15.13
2022-09-20T10:48:51.999Z,15.04
2022-09-20T10:51:25.577Z,14.96
2022-09-20T10:54:32.985Z,14.88
2022-09-20T10:57:26.439Z,14.95
2022-09-20T11:00:18.197Z,15.10
2022-09-20T11:02:59.562Z,15.30
2022-09-20T11:05:38.914Z,15.43
2022-09-20T11:08:28.119Z,15.43
2022-09-20T11:11:23.713Z,15.35
2022-09-20T11:14:14.345Z,15.24
2022-09-20T11:17:03.789Z,15.24
2022-09-20T11:19:56.935Z,15.32
2022-09-20T11:24:07.012Z,15.35
2022-09-20T11:26:42.692Z,15.47
2022-09-20T11:29:36.132Z,15.51
2022-09-20T11:32:43.618Z,15.47
2022-09-20T11:35:15.072Z,15.39
2022-09-20T11:38:00.217Z,15.37
2022-09-20T11:40:41.770Z,15.41
2022-09-20T11:43:15.258Z,15.50
2022-09-20T11:45:49.682Z,15.57
2022-09-20T11:48:31.939Z,15.64
2022-09-20T11:51:13.919Z,15.77
2022-09-20T11:54:13.239Z,15.80
2022-09-20T11:56:51.606Z,15.78
2022-09-20T11:59:54.279Z,15.77
2022-09-20T12:02:47.808Z,15.82
2022-09-20T12:05:38.428Z,15.81
2022-09-20T12:08:29.469Z,15.77
2022-09-20T12:15:33.005Z,15.67
2022-09-20T12:18:27.801Z,15.69
2022-09-20T12:20:57.792Z,15.67
2022-09-20T12:23:40.773Z,15.63
2022-09-20T12:26:38.615Z,15.54
2022-09-20T12:29:27.251Z,15.51
2022-09-20T12:32:02.267Z,15.49
2022-09-20T12:34:38.295Z,15.52
2022-09-20T12:37:11.428Z,15.55
2022-09-20T12:39:52.250Z,15.50
2022-09-20T12:42:35.142Z,15.43
2022-09-20T12:45:20.905Z,15.42
2022-09-20T12:47:58.333Z,15.42
2022-09-20T12:50:47.058Z,15.42
2022-09-20T12:53:18.892Z,15.40
2022-09-20T12:56:08.230Z,15.34
2022-09-20T12:59:05.982Z,15.21
2022-09-20T13:02:39.141Z,15.05
2022-09-20T13:05:36.718Z,14.85
2022-09-20T13:08:27.813Z,14.73
2022-09-20T13:11:13.028Z,14.67
2022-09-20T13:13:57.658Z,14.58
2022-09-20T13:16:39.485Z,14.52
2022-09-20T13:19:23.340Z,14.45
2022-09-20T13:22:02.510Z,14.40
2022-09-20T13:24:41.327Z,14.37
2022-09-20T13:27:19.881Z,14.32
2022-09-20T13:29:51.487Z,14.27
2022-09-20T13:32:27.889Z,14.25
2022-09-20T13:35:24.639Z,14.19
2022-09-20T13:37:58.284Z,14.12
2022-09-20T13:40:35.453Z,14.07
2022-09-20T13:43:29.940Z,14.03
2022-09-20T13:46:35.789Z,14.06
2022-09-20T13:49:21.689Z,14.09
2022-09-20T13:51:52.908Z,14.09
2022-09-20T13:54:32.405Z,14.10
2022-09-20T13:57:07.142Z,14.15
2022-09-20T13:59:47.141Z,14.16
2022-09-20T14:02:29.890Z,14.19
2022-09-20T14:05:07.659Z,14.20
2022-09-20T14:07:38.226Z,14.21
2022-09-20T14:10:32.235Z,14.20
2022-09-20T14:13:07.917Z,14.22
2022-09-20T14:15:43.010Z,14.25
2022-09-20T14:18:20.391Z,14.27
2022-09-20T14:20:50.937Z,14.31
2022-09-20T14:23:33.402Z,14.35
2022-09-20T14:26:18.796Z,14.35
2022-09-20T14:28:50.295Z,14.34
2022-09-20T14:31:27.314Z,14.36
2022-09-20T14:34:01.833Z,14.38
2022-09-20T14:36:33.389Z,14.38
2022-09-20T14:39:07.154Z,14.34
2022-09-20T14:41:42.939Z,14.30
2022-09-20T14:44:31.235Z,14.25
2022-09-20T14:47:14.875Z,14.25
2022-09-20T14:49:48.058Z,14.22
2022-09-20T14:52:37.955Z,14.18
2022-09-20T14:55:15.379Z,14.17
2022-09-20T14:57:48.707Z,14.14
2022-09-20T15:00:21.119Z,14.13
2022-09-20T15:02:52.508Z,14.12
2022-09-20T15:05:24.514Z,14.15
2022-09-20T15:07:56.938Z,14.19
2022-09-20T15:10:27.306Z,14.26
2022-09-20T15:12:57.911Z,14.32
2022-09-20T15:15:28.915Z,14.36
2022-09-20T15:17:59.200Z,14.40
2022-09-20T15:20:30.810Z,14.42
2022-09-20T15:23:02.360Z,14.44
2022-09-20T15:25:32.912Z,14.46
2022-09-20T15:28:04.489Z,14.47
2022-09-20T15:30:35.530Z,14.47
2022-09-20T15:33:05.813Z,14.48
2022-09-20T15:35:37.349Z,14.52
2022-09-20T15:38:10.642Z,14.55
2022-09-20T15:40:47.848Z,14.56
2022-09-20T15:43:22.410Z,14.54
2022-09-20T15:46:00.689Z,14.54
2022-09-20T15:48:32.558Z,14.54
2022-09-20T15:51:11.687Z,14.56
2022-09-20T15:53:49.736Z,14.57
2022-09-20T15:56:53.832Z,14.54
2022-09-20T15:59:24.832Z,14.49
2022-09-20T16:01:55.119Z,14.44
2022-09-20T16:04:27.087Z,14.40
2022-09-20T16:06:57.482Z,14.40
2022-09-20T16:14:33.439Z,14.33
2022-09-20T16:22:11.140Z,14.20
2022-09-20T16:24:44.471Z,14.14
2022-09-20T16:28:47.636Z,14.10
2022-09-20T16:31:47.201Z,14.04
2022-09-20T16:34:21.028Z,14.04
2022-09-20T16:36:54.557Z,14.03
2022-09-20T16:39:27.891Z,14.06
2022-09-20T16:47:07.916Z,14.05
2022-09-20T16:49:39.103Z,14.05
2022-09-20T16:52:14.954Z,14.04
2022-09-20T16:54:45.428Z,14.03
2022-09-20T16:57:17.914Z,14.03
2022-09-20T16:59:52.212Z,14.05
2022-09-20T17:02:22.392Z,14.08
2022-09-20T17:04:57.879Z,14.07
2022-09-20T17:07:29.180Z,14.08
2022-09-20T17:10:01.917Z,14.12
2022-09-20T17:12:34.317Z,14.16
2022-09-20T17:15:04.686Z,14.22
2022-09-20T17:17:36.380Z,14.21
2022-09-20T17:20:08.376Z,14.18
2022-09-20T17:22:38.970Z,14.14
2022-09-20T17:25:10.521Z,14.15
2022-09-20T17:27:41.744Z,14.12
2022-09-20T17:30:18.000Z,14.02
2022-09-20T17:32:50.779Z,13.93
2022-09-20T17:35:20.980Z,13.85
2022-09-20T17:37:54.666Z,13.78
2022-09-20T17:40:25.911Z,13.70
2022-09-20T17:42:57.728Z,13.61
2022-09-20T17:45:28.068Z,13.54
2022-09-20T17:47:58.655Z,13.50
2022-09-20T17:50:29.338Z,13.45
2022-09-20T17:52:59.637Z,13.43
2022-09-20T17:55:31.656Z,13.39
2022-09-20T17:58:02.289Z,13.36
2022-09-20T18:00:33.229Z,13.36
2022-09-20T18:03:06.857Z,13.35
2022-09-20T18:05:37.077Z,13.39
2022-09-20T18:08:32.488Z,13.43
2022-09-20T18:11:40.793Z,13.44
2022-09-20T18:14:17.722Z,13.47
2022-09-20T18:22:09.539Z,13.57
2022-09-20T18:24:40.316Z,13.61
2022-09-20T18:27:12.838Z,13.65
2022-09-20T18:29:44.676Z,13.71
2022-09-20T18:32:16.878Z,13.76
2022-09-20T18:34:52.037Z,13.78
2022-09-20T18:37:23.662Z,13.80
2022-09-20T18:39:54.485Z,13.78
2022-09-20T18:42:28.156Z,13.78
2022-09-20T18:45:02.450Z,13.77
2022-09-20T18:47:37.929Z,13.76
2022-09-20T18:50:10.681Z,13.75
2022-09-20T18:52:44.181Z,13.77
2022-09-20T18:55:16.519Z,13.78
2022-09-20T18:57:49.821Z,13.79
2022-09-20T19:00:21.543Z,13.79
2022-09-20T19:03:10.391Z,13.80
2022-09-20T19:05:56.195Z,13.77
2022-09-20T19:08:54.527Z,13.73
2022-09-20T19:11:58.343Z,13.70
2022-09-20T19:14:44.453Z,13.66
2022-09-20T19:27:06.284Z,13.56
2022-09-20T19:29:40.050Z,13.55
2022-09-20T19:32:21.574Z,13.55
2022-09-20T19:35:02.117Z,13.53
2022-09-20T19:37:38.455Z,13.51
2022-09-20T19:40:20.481Z,13.48
2022-09-20T19:43:26.580Z,13.44
2022-09-20T19:46:00.706Z,13.38
2022-09-20T19:48:37.275Z,13.35
2022-09-20T19:51:16.167Z,13.25
2022-09-20T19:53:47.335Z,13.21
2022-09-20T19:56:30.029Z,13.19
2022-09-20T19:59:01.633Z,13.18
2022-09-20T20:01:35.290Z,13.15
2022-09-20T20:04:07.376Z,13.15
2022-09-20T20:12:16.287Z,13.07
2022-09-20T20:15:14.173Z,13.02
2022-09-20T20:18:03.443Z,13.01
2022-09-20T20:20:57.038Z,13.01
2022-09-20T20:23:41.834Z,12.97
2022-09-20T20:26:28.622Z,12.96
2022-09-20T20:29:09.769Z,12.96
2022-09-20T20:31:42.669Z,12.96
2022-09-20T20:34:18.598Z,12.93
2022-09-20T20:36:57.231Z,12.89
2022-09-20T20:39:37.910Z,12.85
2022-09-20T20:46:59.624Z,12.83
2022-09-20T20:49:34.687Z,12.84
2022-09-20T20:52:06.397Z,12.85
2022-09-20T20:54:36.606Z,12.85
2022-09-20T20:57:07.867Z,12.83
2022-09-20T20:59:40.449Z,12.83
2022-09-20T21:02:10.893Z,12.81
2022-09-20T21:04:41.639Z,12.81
2022-09-20T21:07:11.840Z,12.80
2022-09-20T21:09:42.099Z,12.78
2022-09-20T21:12:12.387Z,12.76
2022-09-20T21:14:44.945Z,12.71
2022-09-20T21:17:15.483Z,12.68
2022-09-20T21:19:45.578Z,12.64
2022-09-20T21:26:48.872Z,12.58
2022-09-20T21:29:22.040Z,12.55
2022-09-20T21:31:52.684Z,12.50
2022-09-20T21:34:24.980Z,12.45
2022-09-20T21:36:55.280Z,12.41
2022-09-20T21:39:25.531Z,12.43
2022-09-20T21:41:57.769Z,12.41
2022-09-20T21:44:28.407Z,12.37
2022-09-20T21:46:58.631Z,12.33
2022-09-20T21:49:28.832Z,12.29
2022-09-20T21:51:59.645Z,12.25
2022-09-20T21:58:24.439Z,12.16
2022-09-20T22:01:15.018Z,12.14
2022-09-20T22:03:47.627Z,12.13
2022-09-20T22:06:20.380Z,12.10
2022-09-20T22:09:02.110Z,12.08
2022-09-20T22:11:39.211Z,12.10
2022-09-20T22:14:10.746Z,12.09
2022-09-20T22:16:42.743Z,12.10
2022-09-20T22:19:15.199Z,12.15
2022-09-20T22:22:21.151Z,12.19
2022-09-20T22:25:03.248Z,12.21
2022-09-20T22:27:33.387Z,12.20
2022-09-20T22:30:05.089Z,12.23
2022-09-20T22:32:35.601Z,12.25
2022-09-20T22:35:05.988Z,12.27
2022-09-20T22:37:36.093Z,12.29
2022-09-20T22:40:06.774Z,12.31
2022-09-20T22:42:39.235Z,12.36
2022-09-20T22:45:11.909Z,12.38
2022-09-20T22:47:42.190Z,12.38
2022-09-20T22:50:12.378Z,12.38
2022-09-20T22:52:42.551Z,12.37
2022-09-20T22:55:12.704Z,12.35
2022-09-20T22:57:43.081Z,12.32
2022-09-20T23:00:13.891Z,12.29
2022-09-20T23:02:44.157Z,12.30
2022-09-20T23:05:14.397Z,12.29
2022-09-20T23:07:44.879Z,12.32
2022-09-20T23:10:15.031Z,12.31
2022-09-20T23:12:45.328Z,12.32
2022-09-20T23:15:16.379Z,12.33
2022-09-20T23:17:47.511Z,12.34
2022-09-20T23:20:17.662Z,12.34
2022-09-20T23:22:47.840Z,12.33
2022-09-20T23:25:17.904Z,12.35
2022-09-20T23:27:47.821Z,12.35
2022-09-20T23:30:18.268Z,12.35
2022-09-20T23:32:48.657Z,12.34
2022-09-20T23:35:18.579Z,12.30
2022-09-20T23:38:24.704Z,12.32
2022-09-20T23:40:58.011Z,12.32
2022-09-20T23:43:28.430Z,12.31
2022-09-20T23:45:58.682Z,12.31
2022-09-20T23:48:29.344Z,12.32
2022-09-20T23:50:59.999Z,12.34
2022-09-20T23:53:30.555Z,12.33
2022-09-20T23:56:00.804Z,12.35
2022-09-20T23:58:31.040Z,12.38
